sensor_id;sensor_type;location;lat;lon;timestamp;pressure;altitude;pressure_sealevel;temperature;humidity
40372;BME280;28564;53.346;-6.554;2023-11-21T00:00:39;101657.09;;;11.66;43.81
40372;BME280;28564;53.346;-6.554;2023-11-21T00:03:06;101655.36;;;11.17;43.81
40372;BME280;28564;53.346;-6.554;2023-11-21T00:05:33;101653.20;;;11.36;43.89
40372;BME280;28564;53.346;-6.554;2023-11-21T00:08:01;101651.57;;;11.11;43.92
40372;BME280;28564;53.346;-6.554;2023-11-21T00:10:28;101664.16;;;11.32;43.97
40372;BME280;28564;53.346;-6.554;2023-11-21T00:12:56;101671.89;;;11.29;44.07
40372;BME280;28564;53.346;-6.554;2023-11-21T00:15:22;101677.76;;;11.28;44.02
40372;BME280;28564;53.346;-6.554;2023-11-21T00:17:50;101682.34;;;11.27;43.99
40372;BME280;28564;53.346;-6.554;2023-11-21T00:20:17;101684.77;;;11.28;43.94
40372;BME280;28564;53.346;-6.554;2023-11-21T00:22:44;101686.16;;;11.28;43.88
40372;BME280;28564;53.346;-6.554;2023-11-21T00:25:12;101694.60;;;11.26;43.88
40372;BME280;28564;53.346;-6.554;2023-11-21T00:27:39;101703.36;;;11.49;43.92
40372;BME280;28564;53.346;-6.554;2023-11-21T00:30:07;101706.82;;;11.18;43.93
40372;BME280;28564;53.346;-6.554;2023-11-21T00:32:35;101710.06;;;11.17;43.93
40372;BME280;28564;53.346;-6.554;2023-11-21T00:35:03;101722.54;;;10.94;43.94
40372;BME280;28564;53.346;-6.554;2023-11-21T00:37:30;101720.46;;;11.13;43.95
40372;BME280;28564;53.346;-6.554;2023-11-21T00:39:58;101721.80;;;11.12;43.93
40372;BME280;28564;53.346;-6.554;2023-11-21T00:42:25;101728.14;;;11.40;43.90
40372;BME280;28564;53.346;-6.554;2023-11-21T00:44:52;101739.04;;;11.12;43.88
40372;BME280;28564;53.346;-6.554;2023-11-21T00:47:20;101741.00;;;11.34;43.90
40372;BME280;28564;53.346;-6.554;2023-11-21T00:49:47;101742.95;;;11.31;43.93
40372;BME280;28564;53.346;-6.554;2023-11-21T00:52:14;101741.82;;;11.03;43.95
40372;BME280;28564;53.346;-6.554;2023-11-21T00:54:41;101737.99;;;11.28;43.95
40372;BME280;28564;53.346;-6.554;2023-11-21T00:57:09;101733.23;;;10.99;43.98
40372;BME280;28564;53.346;-6.554;2023-11-21T00:59:36;101735.94;;;10.99;43.97
40372;BME280;28564;53.346;-6.554;2023-11-21T01:02:03;101732.81;;;10.96;44.08
40372;BME280;28564;53.346;-6.554;2023-11-21T01:04:31;101735.75;;;11.19;44.12
40372;BME280;28564;53.346;-6.554;2023-11-21T01:06:58;101738.86;;;11.16;44.16
40372;BME280;28564;53.346;-6.554;2023-11-21T01:09:25;101750.96;;;10.86;44.19
40372;BME280;28564;53.346;-6.554;2023-11-21T01:11:53;101758.47;;;10.80;44.27
40372;BME280;28564;53.346;-6.554;2023-11-21T01:14:20;101761.68;;;10.78;44.36
40372;BME280;28564;53.346;-6.554;2023-11-21T01:16:47;101766.26;;;10.99;44.41
40372;BME280;28564;53.346;-6.554;2023-11-21T01:19:15;101774.41;;;10.68;44.44
40372;BME280;28564;53.346;-6.554;2023-11-21T01:21:42;101785.85;;;10.68;44.43
40372;BME280;28564;53.346;-6.554;2023-11-21T01:24:09;101788.10;;;10.67;44.41
40372;BME280;28564;53.346;-6.554;2023-11-21T01:26:37;101781.55;;;10.92;44.41
40372;BME280;28564;53.346;-6.554;2023-11-21T01:29:04;101787.29;;;10.91;44.45
40372;BME280;28564;53.346;-6.554;2023-11-21T01:31:31;101795.61;;;10.62;44.45
40372;BME280;28564;53.346;-6.554;2023-11-21T01:33:58;101799.73;;;10.86;44.53
40372;BME280;28564;53.346;-6.554;2023-11-21T01:36:30;101799.00;;;10.60;44.50
40372;BME280;28564;53.346;-6.554;2023-11-21T01:38:58;101802.17;;;10.84;44.52
40372;BME280;28564;53.346;-6.554;2023-11-21T01:41:25;101808.16;;;10.84;44.48
40372;BME280;28564;53.346;-6.554;2023-11-21T01:43:53;101813.90;;;10.83;44.45
40372;BME280;28564;53.346;-6.554;2023-11-21T01:46:21;101817.81;;;10.83;44.46
40372;BME280;28564;53.346;-6.554;2023-11-21T01:48:49;101827.33;;;10.78;44.55
40372;BME280;28564;53.346;-6.554;2023-11-21T01:51:17;101818.87;;;10.79;44.45
40372;BME280;28564;53.346;-6.554;2023-11-21T01:53:46;101818.02;;;10.77;44.50
40372;BME280;28564;53.346;-6.554;2023-11-21T01:56:13;101814.56;;;10.77;44.44
40372;BME280;28564;53.346;-6.554;2023-11-21T01:58:42;101813.18;;;10.48;44.43
40372;BME280;28564;53.346;-6.554;2023-11-21T02:01:09;101811.44;;;10.75;44.41
40372;BME280;28564;53.346;-6.554;2023-11-21T02:03:37;101819.57;;;10.75;44.39
40372;BME280;28564;53.346;-6.554;2023-11-21T02:06:05;101820.36;;;10.71;44.48
40372;BME280;28564;53.346;-6.554;2023-11-21T02:08:32;101822.03;;;10.70;44.52
40372;BME280;28564;53.346;-6.554;2023-11-21T02:10:59;101817.23;;;10.66;44.51
40372;BME280;28564;53.346;-6.554;2023-11-21T02:13:27;101816.43;;;10.65;44.48
40372;BME280;28564;53.346;-6.554;2023-11-21T02:15:54;101823.54;;;10.63;44.50
40372;BME280;28564;53.346;-6.554;2023-11-21T02:18:21;101824.88;;;10.35;44.45
40372;BME280;28564;53.346;-6.554;2023-11-21T02:20:48;101832.14;;;10.59;44.47
40372;BME280;28564;53.346;-6.554;2023-11-21T02:23:16;101837.13;;;10.30;44.48
40372;BME280;28564;53.346;-6.554;2023-11-21T02:25:43;101841.84;;;10.27;44.45
40372;BME280;28564;53.346;-6.554;2023-11-21T02:28:10;101849.22;;;10.51;44.45
40372;BME280;28564;53.346;-6.554;2023-11-21T02:30:38;101851.04;;;10.48;44.41
40372;BME280;28564;53.346;-6.554;2023-11-21T02:33:05;101855.33;;;10.45;44.42
40372;BME280;28564;53.346;-6.554;2023-11-21T02:35:32;101858.35;;;10.44;44.40
40372;BME280;28564;53.346;-6.554;2023-11-21T02:37:59;101861.16;;;10.42;44.41
40372;BME280;28564;53.346;-6.554;2023-11-21T02:40:27;101859.57;;;10.39;44.45
40372;BME280;28564;53.346;-6.554;2023-11-21T02:42:54;101860.67;;;10.36;44.50
40372;BME280;28564;53.346;-6.554;2023-11-21T02:45:21;101866.71;;;10.35;44.52
40372;BME280;28564;53.346;-6.554;2023-11-21T02:47:49;101875.85;;;10.56;44.54
40372;BME280;28564;53.346;-6.554;2023-11-21T02:50:16;101889.07;;;10.34;44.53
40372;BME280;28564;53.346;-6.554;2023-11-21T02:52:43;101895.51;;;10.34;44.49
40372;BME280;28564;53.346;-6.554;2023-11-21T02:55:10;101896.79;;;10.32;44.48
40372;BME280;28564;53.346;-6.554;2023-11-21T02:57:38;101900.32;;;10.30;44.52
40372;BME280;28564;53.346;-6.554;2023-11-21T03:00:06;101901.16;;;10.49;44.52
40372;BME280;28564;53.346;-6.554;2023-11-21T03:02:35;101902.86;;;10.72;44.59
40372;BME280;28564;53.346;-6.554;2023-11-21T03:05:02;101904.45;;;10.20;44.60
40372;BME280;28564;53.346;-6.554;2023-11-21T03:07:29;101909.04;;;10.17;44.53
40372;BME280;28564;53.346;-6.554;2023-11-21T03:09:56;101908.67;;;10.13;44.57
40372;BME280;28564;53.346;-6.554;2023-11-21T03:12:23;101914.49;;;10.62;44.50
40372;BME280;28564;53.346;-6.554;2023-11-21T03:14:51;101917.27;;;10.10;44.41
40372;BME280;28564;53.346;-6.554;2023-11-21T03:17:18;101924.04;;;10.06;44.42
40372;BME280;28564;53.346;-6.554;2023-11-21T03:19:45;101923.20;;;10.03;44.39
40372;BME280;28564;53.346;-6.554;2023-11-21T03:22:12;101924.77;;;9.98;44.39
40372;BME280;28564;53.346;-6.554;2023-11-21T03:24:39;101929.68;;;10.00;44.32
40372;BME280;28564;53.346;-6.554;2023-11-21T03:27:07;101935.56;;;10.22;44.22
40372;BME280;28564;53.346;-6.554;2023-11-21T03:29:34;101940.53;;;9.95;44.17
40372;BME280;28564;53.346;-6.554;2023-11-21T03:32:01;101941.33;;;9.84;44.22
40372;BME280;28564;53.346;-6.554;2023-11-21T03:34:29;101949.56;;;9.72;44.35
40372;BME280;28564;53.346;-6.554;2023-11-21T03:36:56;101955.79;;;10.15;44.42
40372;BME280;28564;53.346;-6.554;2023-11-21T03:39:23;101960.73;;;10.09;44.43
40372;BME280;28564;53.346;-6.554;2023-11-21T03:41:51;101961.09;;;10.03;44.47
40372;BME280;28564;53.346;-6.554;2023-11-21T03:44:18;101955.35;;;9.50;44.62
40372;BME280;28564;53.346;-6.554;2023-11-21T03:46:46;101951.74;;;9.71;44.78
40372;BME280;28564;53.346;-6.554;2023-11-21T03:49:13;101947.98;;;9.72;44.90
40372;BME280;28564;53.346;-6.554;2023-11-21T03:51:40;101953.71;;;9.74;45.09
40372;BME280;28564;53.346;-6.554;2023-11-21T03:54:08;101960.45;;;10.04;45.18
40372;BME280;28564;53.346;-6.554;2023-11-21T03:56:35;101965.25;;;10.08;45.19
40372;BME280;28564;53.346;-6.554;2023-11-21T03:59:02;101963.86;;;10.11;45.15
40372;BME280;28564;53.346;-6.554;2023-11-21T04:01:29;101963.44;;;10.14;45.05
40372;BME280;28564;53.346;-6.554;2023-11-21T04:03:57;101962.08;;;9.88;45.01
40372;BME280;28564;53.346;-6.554;2023-11-21T04:06:24;101958.59;;;9.63;44.93
40372;BME280;28564;53.346;-6.554;2023-11-21T04:08:51;101953.25;;;9.60;44.86
40372;BME280;28564;53.346;-6.554;2023-11-21T04:11:19;101955.21;;;10.05;44.87
40372;BME280;28564;53.346;-6.554;2023-11-21T04:13:46;101952.65;;;10.03;44.87
40372;BME280;28564;53.346;-6.554;2023-11-21T04:16:13;101954.87;;;9.75;44.89
40372;BME280;28564;53.346;-6.554;2023-11-21T04:18:40;101964.58;;;9.76;44.81
40372;BME280;28564;53.346;-6.554;2023-11-21T04:21:08;101964.51;;;9.50;44.76
40372;BME280;28564;53.346;-6.554;2023-11-21T04:23:35;101969.09;;;9.95;44.81
40372;BME280;28564;53.346;-6.554;2023-11-21T04:26:02;101974.33;;;9.92;44.77
40372;BME280;28564;53.346;-6.554;2023-11-21T04:28:30;101979.24;;;9.87;44.75
40372;BME280;28564;53.346;-6.554;2023-11-21T04:30:57;101986.19;;;9.81;44.73
40372;BME280;28564;53.346;-6.554;2023-11-21T04:33:24;101988.16;;;9.82;44.76
40372;BME280;28564;53.346;-6.554;2023-11-21T04:35:51;101991.45;;;9.81;44.90
40372;BME280;28564;53.346;-6.554;2023-11-21T04:38:19;101991.02;;;9.75;44.94
40372;BME280;28564;53.346;-6.554;2023-11-21T04:40:46;101993.69;;;9.69;45.11
40372;BME280;28564;53.346;-6.554;2023-11-21T04:43:13;101995.36;;;9.64;45.18
40372;BME280;28564;53.346;-6.554;2023-11-21T04:45:41;101996.30;;;9.83;45.44
40372;BME280;28564;53.346;-6.554;2023-11-21T04:48:08;101991.54;;;9.61;45.46
40372;BME280;28564;53.346;-6.554;2023-11-21T04:50:35;101987.24;;;9.59;45.51
40372;BME280;28564;53.346;-6.554;2023-11-21T04:53:03;101996.36;;;9.58;45.58
40372;BME280;28564;53.346;-6.554;2023-11-21T04:55:30;102003.36;;;9.58;45.60
40372;BME280;28564;53.346;-6.554;2023-11-21T04:57:57;102010.52;;;9.58;45.57
40372;BME280;28564;53.346;-6.554;2023-11-21T05:00:24;102019.02;;;9.58;45.54
40372;BME280;28564;53.346;-6.554;2023-11-21T05:02:52;102023.77;;;9.59;45.54
40372;BME280;28564;53.346;-6.554;2023-11-21T05:05:19;102033.07;;;9.59;45.50
40372;BME280;28564;53.346;-6.554;2023-11-21T05:07:46;102035.33;;;9.31;45.50
40372;BME280;28564;53.346;-6.554;2023-11-21T05:10:14;102038.15;;;9.57;45.50
40372;BME280;28564;53.346;-6.554;2023-11-21T05:12:41;102039.54;;;9.55;45.54
40372;BME280;28564;53.346;-6.554;2023-11-21T05:15:14;102043.51;;;9.53;45.59
40372;BME280;28564;53.346;-6.554;2023-11-21T05:17:42;102049.04;;;9.53;45.61
40372;BME280;28564;53.346;-6.554;2023-11-21T05:20:10;102052.44;;;9.54;45.61
40372;BME280;28564;53.346;-6.554;2023-11-21T05:22:37;102057.69;;;9.56;45.59
40372;BME280;28564;53.346;-6.554;2023-11-21T05:25:06;102058.17;;;9.56;45.61
40372;BME280;28564;53.346;-6.554;2023-11-21T05:27:33;102065.67;;;9.58;45.63
40372;BME280;28564;53.346;-6.554;2023-11-21T05:30:01;102070.42;;;9.58;45.61
40372;BME280;28564;53.346;-6.554;2023-11-21T05:32:29;102072.45;;;9.31;45.59
40372;BME280;28564;53.346;-6.554;2023-11-21T05:34:56;102075.28;;;9.56;45.64
40372;BME280;28564;53.346;-6.554;2023-11-21T05:37:24;102078.30;;;9.54;45.71
40372;BME280;28564;53.346;-6.554;2023-11-21T05:39:51;102086.00;;;9.53;45.72
40372;BME280;28564;53.346;-6.554;2023-11-21T05:42:18;102091.84;;;9.50;45.74
40372;BME280;28564;53.346;-6.554;2023-11-21T05:44:45;102094.30;;;9.48;45.71
40372;BME280;28564;53.346;-6.554;2023-11-21T05:47:13;102089.80;;;9.65;45.73
40372;BME280;28564;53.346;-6.554;2023-11-21T05:49:41;102085.57;;;9.11;45.83
40372;BME280;28564;53.346;-6.554;2023-11-21T05:52:08;102085.91;;;8.87;45.92
40372;BME280;28564;53.346;-6.554;2023-11-21T05:54:36;102090.79;;;9.37;45.90
40372;BME280;28564;53.346;-6.554;2023-11-21T05:57:04;102095.86;;;9.05;45.95
40372;BME280;28564;53.346;-6.554;2023-11-21T05:59:31;102098.97;;;9.73;46.02
40372;BME280;28564;53.346;-6.554;2023-11-21T06:02:03;102100.02;;;9.25;46.15
40372;BME280;28564;53.346;-6.554;2023-11-21T06:04:30;102098.96;;;9.21;46.25
40372;BME280;28564;53.346;-6.554;2023-11-21T06:06:58;102099.19;;;9.16;46.41
40372;BME280;28564;53.346;-6.554;2023-11-21T06:09:25;102096.23;;;9.16;46.49
40372;BME280;28564;53.346;-6.554;2023-11-21T06:11:52;102095.03;;;9.19;46.50
40372;BME280;28564;53.346;-6.554;2023-11-21T06:14:19;102098.17;;;9.25;46.50
40372;BME280;28564;53.346;-6.554;2023-11-21T06:16:47;102107.00;;;9.33;46.36
40372;BME280;28564;53.346;-6.554;2023-11-21T06:19:14;102114.99;;;9.39;46.27
40372;BME280;28564;53.346;-6.554;2023-11-21T06:21:45;102117.08;;;9.18;46.19
40372;BME280;28564;53.346;-6.554;2023-11-21T06:24:12;102118.91;;;9.22;46.04
40372;BME280;28564;53.346;-6.554;2023-11-21T06:26:39;102117.95;;;9.47;45.89
40372;BME280;28564;53.346;-6.554;2023-11-21T06:29:07;102111.89;;;9.40;45.92
40372;BME280;28564;53.346;-6.554;2023-11-21T06:31:34;102107.58;;;9.32;46.11
40372;BME280;28564;53.346;-6.554;2023-11-21T06:34:02;102101.90;;;8.99;46.19
40372;BME280;28564;53.346;-6.554;2023-11-21T06:36:30;102096.10;;;9.23;46.21
40372;BME280;28564;53.346;-6.554;2023-11-21T06:38:57;102100.21;;;9.42;46.22
40372;BME280;28564;53.346;-6.554;2023-11-21T06:41:24;102107.27;;;9.15;46.33
40372;BME280;28564;53.346;-6.554;2023-11-21T06:43:51;102113.35;;;9.34;46.41
40372;BME280;28564;53.346;-6.554;2023-11-21T06:46:19;102121.44;;;9.09;46.37
40372;BME280;28564;53.346;-6.554;2023-11-21T06:48:46;102130.30;;;9.08;46.34
40372;BME280;28564;53.346;-6.554;2023-11-21T06:51:13;102131.97;;;9.27;46.26
40372;BME280;28564;53.346;-6.554;2023-11-21T06:53:41;102136.58;;;9.01;46.11
40372;BME280;28564;53.346;-6.554;2023-11-21T06:56:16;102140.19;;;8.98;46.03
40372;BME280;28564;53.346;-6.554;2023-11-21T06:58:43;102145.83;;;9.13;46.16
40372;BME280;28564;53.346;-6.554;2023-11-21T07:01:10;102144.49;;;8.83;46.37
40372;BME280;28564;53.346;-6.554;2023-11-21T07:03:37;102148.31;;;8.76;46.63
40372;BME280;28564;53.346;-6.554;2023-11-21T07:06:05;102145.17;;;8.90;46.78
40372;BME280;28564;53.346;-6.554;2023-11-21T07:08:33;102141.07;;;8.82;46.80
40372;BME280;28564;53.346;-6.554;2023-11-21T07:11:00;102135.88;;;8.76;46.73
40372;BME280;28564;53.346;-6.554;2023-11-21T07:13:27;102136.29;;;8.71;46.91
40372;BME280;28564;53.346;-6.554;2023-11-21T07:15:55;102145.09;;;8.69;46.88
40372;BME280;28564;53.346;-6.554;2023-11-21T07:18:22;102156.61;;;8.68;46.86
40372;BME280;28564;53.346;-6.554;2023-11-21T07:20:49;102166.56;;;8.68;46.83
40372;BME280;28564;53.346;-6.554;2023-11-21T07:23:17;102169.21;;;8.89;46.72
40372;BME280;28564;53.346;-6.554;2023-11-21T07:25:44;102170.28;;;8.44;46.68
40372;BME280;28564;53.346;-6.554;2023-11-21T07:28:11;102179.35;;;8.87;46.58
40372;BME280;28564;53.346;-6.554;2023-11-21T07:30:39;102186.32;;;8.61;46.49
40372;BME280;28564;53.346;-6.554;2023-11-21T07:33:06;102190.71;;;8.55;46.69
40372;BME280;28564;53.346;-6.554;2023-11-21T07:35:33;102188.78;;;8.47;47.07
40372;BME280;28564;53.346;-6.554;2023-11-21T07:38:01;102189.77;;;8.63;47.40
40372;BME280;28564;53.346;-6.554;2023-11-21T07:40:28;102196.91;;;8.36;47.46
40372;BME280;28564;53.346;-6.554;2023-11-21T07:42:55;102200.71;;;8.34;47.54
40372;BME280;28564;53.346;-6.554;2023-11-21T07:45:23;102211.31;;;8.56;47.63
40372;BME280;28564;53.346;-6.554;2023-11-21T07:47:50;102215.49;;;8.56;47.68
40372;BME280;28564;53.346;-6.554;2023-11-21T07:50:17;102217.17;;;8.54;47.72
40372;BME280;28564;53.346;-6.554;2023-11-21T07:52:44;102220.90;;;8.54;47.64
40372;BME280;28564;53.346;-6.554;2023-11-21T07:55:12;102218.79;;;8.52;47.63
40372;BME280;28564;53.346;-6.554;2023-11-21T07:57:39;102226.91;;;8.28;47.76
40372;BME280;28564;53.346;-6.554;2023-11-21T08:00:07;102231.37;;;8.53;47.92
40372;BME280;28564;53.346;-6.554;2023-11-21T08:02:35;102232.43;;;8.31;47.90
40372;BME280;28564;53.346;-6.554;2023-11-21T08:05:02;102233.80;;;8.54;47.85
40372;BME280;28564;53.346;-6.554;2023-11-21T08:07:29;102234.33;;;8.55;47.86
40372;BME280;28564;53.346;-6.554;2023-11-21T08:09:57;102232.96;;;8.56;47.88
40372;BME280;28564;53.346;-6.554;2023-11-21T08:12:24;102239.08;;;8.37;47.86
40372;BME280;28564;53.346;-6.554;2023-11-21T08:14:51;102247.59;;;8.63;47.87
40372;BME280;28564;53.346;-6.554;2023-11-21T08:17:19;102258.37;;;8.70;47.84
40372;BME280;28564;53.346;-6.554;2023-11-21T08:19:46;102261.18;;;8.73;47.81
40372;BME280;28564;53.346;-6.554;2023-11-21T08:22:13;102262.24;;;8.51;47.93
40372;BME280;28564;53.346;-6.554;2023-11-21T08:24:40;102266.44;;;8.51;47.93
40372;BME280;28564;53.346;-6.554;2023-11-21T08:27:08;102268.53;;;8.72;47.89
40372;BME280;28564;53.346;-6.554;2023-11-21T08:29:35;102259.04;;;8.72;47.89
40372;BME280;28564;53.346;-6.554;2023-11-21T08:32:03;102251.71;;;8.82;47.82
40372;BME280;28564;53.346;-6.554;2023-11-21T08:34:30;102252.36;;;8.68;47.69
40372;BME280;28564;53.346;-6.554;2023-11-21T08:36:58;102253.09;;;8.92;47.70
40372;BME280;28564;53.346;-6.554;2023-11-21T08:39:25;102261.74;;;8.70;47.65
40372;BME280;28564;53.346;-6.554;2023-11-21T08:41:52;102269.42;;;8.46;47.75
40372;BME280;28564;53.346;-6.554;2023-11-21T08:44:20;102275.13;;;8.90;47.72
40372;BME280;28564;53.346;-6.554;2023-11-21T08:46:47;102287.56;;;8.46;47.80
40372;BME280;28564;53.346;-6.554;2023-11-21T08:49:14;102287.04;;;8.69;47.84
40372;BME280;28564;53.346;-6.554;2023-11-21T08:51:43;102292.88;;;8.70;47.92
40372;BME280;28564;53.346;-6.554;2023-11-21T08:54:11;102293.75;;;8.51;47.90
40372;BME280;28564;53.346;-6.554;2023-11-21T08:56:38;102294.40;;;8.99;47.92
40372;BME280;28564;53.346;-6.554;2023-11-21T08:59:06;102298.56;;;8.80;47.90
40372;BME280;28564;53.346;-6.554;2023-11-21T09:01:33;102306.88;;;8.85;47.85
40372;BME280;28564;53.346;-6.554;2023-11-21T09:04:00;102314.40;;;8.90;47.82
40372;BME280;28564;53.346;-6.554;2023-11-21T09:06:27;102318.40;;;8.73;47.76
40372;BME280;28564;53.346;-6.554;2023-11-21T09:08:55;102314.73;;;8.77;47.76
40372;BME280;28564;53.346;-6.554;2023-11-21T09:11:22;102312.60;;;8.82;47.69
40372;BME280;28564;53.346;-6.554;2023-11-21T09:13:49;102316.14;;;8.86;47.68
40372;BME280;28564;53.346;-6.554;2023-11-21T09:16:17;102320.42;;;8.89;47.72
40372;BME280;28564;53.346;-6.554;2023-11-21T09:18:45;102320.30;;;8.94;47.72
40372;BME280;28564;53.346;-6.554;2023-11-21T09:21:12;102320.34;;;8.96;47.75
40372;BME280;28564;53.346;-6.554;2023-11-21T09:23:40;102315.88;;;8.98;47.76
40372;BME280;28564;53.346;-6.554;2023-11-21T09:26:07;102311.58;;;9.03;47.75
40372;BME280;28564;53.346;-6.554;2023-11-21T09:28:34;102316.36;;;9.10;47.75
40372;BME280;28564;53.346;-6.554;2023-11-21T09:31:02;102323.43;;;9.18;47.80
40372;BME280;28564;53.346;-6.554;2023-11-21T09:33:29;102325.19;;;9.24;47.82
40372;BME280;28564;53.346;-6.554;2023-11-21T09:35:56;102323.71;;;9.31;47.84
40372;BME280;28564;53.346;-6.554;2023-11-21T09:38:23;102316.62;;;9.40;47.84
40372;BME280;28564;53.346;-6.554;2023-11-21T09:40:52;102316.58;;;9.46;47.84
40372;BME280;28564;53.346;-6.554;2023-11-21T09:43:20;102316.61;;;9.54;47.82
40372;BME280;28564;53.346;-6.554;2023-11-21T09:45:51;102309.48;;;9.59;47.86
40372;BME280;28564;53.346;-6.554;2023-11-21T09:48:23;102309.35;;;9.66;47.81
40372;BME280;28564;53.346;-6.554;2023-11-21T09:50:53;102308.02;;;9.74;47.82
40372;BME280;28564;53.346;-6.554;2023-11-21T09:53:21;102311.19;;;9.81;47.84
40372;BME280;28564;53.346;-6.554;2023-11-21T09:55:52;102309.09;;;9.38;47.83
40372;BME280;28564;53.346;-6.554;2023-11-21T09:58:20;102306.28;;;9.47;47.80
40372;BME280;28564;53.346;-6.554;2023-11-21T10:03:55;102299.25;;;9.90;47.07
40372;BME280;28564;53.346;-6.554;2023-11-21T10:06:22;102298.05;;;10.18;47.05
40372;BME280;28564;53.346;-6.554;2023-11-21T10:08:51;102298.85;;;9.89;47.09
40372;BME280;28564;53.346;-6.554;2023-11-21T10:11:20;102301.27;;;10.17;47.14
40372;BME280;28564;53.346;-6.554;2023-11-21T10:13:48;102302.29;;;10.18;47.19
40372;BME280;28564;53.346;-6.554;2023-11-21T10:16:19;102296.46;;;10.00;47.18
40372;BME280;28564;53.346;-6.554;2023-11-21T10:18:48;102294.44;;;10.31;47.18
40372;BME280;28564;53.346;-6.554;2023-11-21T10:21:18;102293.59;;;10.04;47.29
40372;BME280;28564;53.346;-6.554;2023-11-21T10:23:45;102299.26;;;10.33;47.34
40372;BME280;28564;53.346;-6.554;2023-11-21T10:26:13;102297.37;;;10.36;47.36
40372;BME280;28564;53.346;-6.554;2023-11-21T10:28:41;102300.19;;;10.41;47.39
40372;BME280;28564;53.346;-6.554;2023-11-21T10:31:08;102310.42;;;10.45;47.41
40372;BME280;28564;53.346;-6.554;2023-11-21T10:33:35;102321.01;;;10.55;47.41
40372;BME280;28564;53.346;-6.554;2023-11-21T10:36:03;102327.60;;;10.61;47.42
40372;BME280;28564;53.346;-6.554;2023-11-21T10:38:33;102327.18;;;10.68;47.37
40372;BME280;28564;53.346;-6.554;2023-11-21T10:41:11;102322.95;;;10.75;47.28
40372;BME280;28564;53.346;-6.554;2023-11-21T10:43:38;102321.12;;;10.80;47.35
40372;BME280;28564;53.346;-6.554;2023-11-21T10:46:07;102321.67;;;10.88;47.24
40372;BME280;28564;53.346;-6.554;2023-11-21T10:48:34;102322.70;;;10.70;47.16
40372;BME280;28564;53.346;-6.554;2023-11-21T10:51:06;102321.37;;;10.57;47.04
40372;BME280;28564;53.346;-6.554;2023-11-21T10:53:33;102326.74;;;10.90;47.02
40372;BME280;28564;53.346;-6.554;2023-11-21T10:56:03;102334.39;;;11.02;46.93
40372;BME280;28564;53.346;-6.554;2023-11-21T10:58:32;102341.34;;;11.15;46.83
40372;BME280;28564;53.346;-6.554;2023-11-21T11:01:06;102345.29;;;11.31;46.71
40372;BME280;28564;53.346;-6.554;2023-11-21T11:03:35;102340.04;;;11.15;46.53
40372;BME280;28564;53.346;-6.554;2023-11-21T11:06:03;102340.78;;;11.20;46.53
40372;BME280;28564;53.346;-6.554;2023-11-21T11:08:32;102346.02;;;11.27;46.40
40372;BME280;28564;53.346;-6.554;2023-11-21T11:10:59;102354.88;;;11.28;46.41
40372;BME280;28564;53.346;-6.554;2023-11-21T11:13:26;102362.28;;;11.30;46.31
40372;BME280;28564;53.346;-6.554;2023-11-21T11:15:58;102365.37;;;11.32;46.29
40372;BME280;28564;53.346;-6.554;2023-11-21T11:18:25;102358.28;;;11.36;46.27
40372;BME280;28564;53.346;-6.554;2023-11-21T11:20:53;102351.06;;;11.67;46.21
40372;BME280;28564;53.346;-6.554;2023-11-21T11:23:36;102340.10;;;11.51;46.26
40372;BME280;28564;53.346;-6.554;2023-11-21T11:26:14;102335.79;;;11.38;46.08
40372;BME280;28564;53.346;-6.554;2023-11-21T11:28:51;102339.00;;;11.68;46.05
40372;BME280;28564;53.346;-6.554;2023-11-21T11:31:33;102335.35;;;11.80;46.12
40372;BME280;28564;53.346;-6.554;2023-11-21T11:34:11;102334.78;;;12.02;45.96
40372;BME280;28564;53.346;-6.554;2023-11-21T11:36:47;102333.04;;;12.21;45.67
40372;BME280;28564;53.346;-6.554;2023-11-21T11:39:34;102323.16;;;12.22;45.54
40372;BME280;28564;53.346;-6.554;2023-11-21T11:42:03;102313.48;;;12.21;45.38
40372;BME280;28564;53.346;-6.554;2023-11-21T11:44:48;102314.37;;;12.45;45.25
40372;BME280;28564;53.346;-6.554;2023-11-21T11:47:19;102308.20;;;12.69;45.06
40372;BME280;28564;53.346;-6.554;2023-11-21T11:50:06;102312.17;;;12.84;44.56
40372;BME280;28564;53.346;-6.554;2023-11-21T11:52:36;102310.94;;;12.77;44.46
40372;BME280;28564;53.346;-6.554;2023-11-21T11:55:03;102307.22;;;12.92;44.26
40372;BME280;28564;53.346;-6.554;2023-11-21T11:57:31;102301.93;;;13.25;44.20
40372;BME280;28564;53.346;-6.554;2023-11-21T12:00:17;102295.42;;;13.34;44.10
40372;BME280;28564;53.346;-6.554;2023-11-21T12:02:45;102297.84;;;13.31;43.83
40372;BME280;28564;53.346;-6.554;2023-11-21T12:05:14;102303.30;;;12.99;43.79
40372;BME280;28564;53.346;-6.554;2023-11-21T12:07:46;102307.68;;;13.12;43.91
40372;BME280;28564;53.346;-6.554;2023-11-21T12:10:14;102323.68;;;12.86;43.99
40372;BME280;28564;53.346;-6.554;2023-11-21T12:12:44;102332.16;;;13.11;44.06
40372;BME280;28564;53.346;-6.554;2023-11-21T12:15:12;102331.71;;;12.98;44.14
40372;BME280;28564;53.346;-6.554;2023-11-21T12:17:41;102322.39;;;13.37;44.05
40372;BME280;28564;53.346;-6.554;2023-11-21T12:20:10;102315.58;;;13.48;43.92
40372;BME280;28564;53.346;-6.554;2023-11-21T12:22:38;102309.12;;;13.13;43.90
40372;BME280;28564;53.346;-6.554;2023-11-21T12:25:06;102311.31;;;13.41;43.83
40372;BME280;28564;53.346;-6.554;2023-11-21T12:27:34;102321.79;;;13.47;43.76
40372;BME280;28564;53.346;-6.554;2023-11-21T12:30:01;102327.55;;;13.42;43.80
40372;BME280;28564;53.346;-6.554;2023-11-21T12:32:29;102321.97;;;13.94;43.67
40372;BME280;28564;53.346;-6.554;2023-11-21T12:34:55;102320.32;;;14.09;43.06
40372;BME280;28564;53.346;-6.554;2023-11-21T12:37:23;102325.33;;;13.93;42.87
40372;BME280;28564;53.346;-6.554;2023-11-21T12:39:50;102325.63;;;14.35;42.49
40372;BME280;28564;53.346;-6.554;2023-11-21T12:42:17;102328.10;;;14.64;42.05
40372;BME280;28564;53.346;-6.554;2023-11-21T12:44:46;102330.49;;;14.57;41.71
40372;BME280;28564;53.346;-6.554;2023-11-21T12:47:17;102332.00;;;14.19;41.57
40372;BME280;28564;53.346;-6.554;2023-11-21T12:49:45;102338.20;;;13.89;41.55
40372;BME280;28564;53.346;-6.554;2023-11-21T12:52:12;102337.23;;;14.36;41.67